Terminal Aerodrome Forecast
Issued by NWS Sioux Falls, SD

Home | Current Version | Previous Version | Graphics & Text | Print | Product List | Glossary Off
Versions: 1 2 3 4 5 6 7 8 9 10 11 12

000
FTUS43 KFSD 260520
TAFFSD
TAF
KFSD 260520Z 2606/2706 17006KT P6SM FEW050 SCT130
     FM261000 26005KT P6SM BKN200
     FM261200 31006KT P6SM BKN150
     FM261500 32011KT P6SM SKC
     FM270000 30008KT P6SM SKC
     FM270300 30003KT P6SM SCT080=

USA.gov is the U.S. government's official web portal to all federal, state and local government web resources and services.